createdAt,value
2023-06-07T00:01:15.732Z,44.34
2023-06-07T00:03:42.639Z,43.91
2023-06-07T00:06:10.379Z,43.72
2023-06-07T00:08:39.267Z,43.48
2023-06-07T00:11:07.257Z,43.21
2023-06-07T00:13:37.432Z,42.54
2023-06-07T00:16:04.516Z,42.22
2023-06-07T00:18:31.828Z,42.00
2023-06-07T00:20:58.925Z,41.76
2023-06-07T00:23:29.153Z,41.92
2023-06-07T00:25:57.475Z,41.97
2023-06-07T00:28:24.097Z,42.26
2023-06-07T00:30:51.086Z,42.45
2023-06-07T00:33:18.184Z,42.10
2023-06-07T00:35:45.028Z,41.75
2023-06-07T00:38:11.738Z,41.41
2023-06-07T00:40:38.621Z,41.03
2023-06-07T00:43:05.307Z,40.73
2023-06-07T00:45:32.002Z,40.92
2023-06-07T00:47:58.821Z,41.59
2023-06-07T00:50:25.852Z,41.88
2023-06-07T00:52:52.517Z,41.94
2023-06-07T00:55:20.233Z,42.66
2023-06-07T00:57:47.029Z,43.19
2023-06-07T01:00:15.862Z,43.66
2023-06-07T01:02:46.986Z,43.76
2023-06-07T01:05:14.683Z,43.99
2023-06-07T01:07:45.931Z,44.26
2023-06-07T01:10:12.610Z,44.31
2023-06-07T01:12:40.445Z,44.42
2023-06-07T01:15:07.946Z,44.27
2023-06-07T01:17:38.303Z,44.18
2023-06-07T01:20:07.536Z,44.12
2023-06-07T01:22:35.078Z,44.08
2023-06-07T01:25:02.717Z,44.25
2023-06-07T01:27:31.272Z,44.30
2023-06-07T01:29:58.383Z,45.00
2023-06-07T01:32:25.683Z,45.26
2023-06-07T01:34:52.843Z,45.44
2023-06-07T01:37:25.697Z,45.62
2023-06-07T01:39:53.466Z,45.67
2023-06-07T01:42:20.598Z,45.64
2023-06-07T01:44:47.964Z,45.67
2023-06-07T01:47:16.649Z,45.88
2023-06-07T01:49:43.627Z,45.98
2023-06-07T01:52:11.103Z,45.87
2023-06-07T01:54:38.445Z,45.41
2023-06-07T01:57:28.209Z,45.40
2023-06-07T01:59:55.209Z,45.49
2023-06-07T02:02:33.453Z,45.45
2023-06-07T02:05:10.036Z,45.44
2023-06-07T02:07:41.921Z,45.60
2023-06-07T02:10:08.686Z,45.92
2023-06-07T02:12:36.388Z,46.50
2023-06-07T02:15:04.011Z,47.16
2023-06-07T02:17:32.845Z,47.92
2023-06-07T02:19:59.835Z,48.58
2023-06-07T02:22:29.630Z,49.37
2023-06-07T02:24:57.133Z,50.18
2023-06-07T02:27:23.815Z,51.02
2023-06-07T02:29:50.924Z,52.14
2023-06-07T02:32:17.634Z,53.04
2023-06-07T02:34:45.606Z,54.06
2023-06-07T02:37:12.364Z,54.89
2023-06-07T02:39:39.087Z,56.04
2023-06-07T02:42:06.851Z,56.90
2023-06-07T02:44:33.828Z,57.95
2023-06-07T02:47:00.748Z,58.81
2023-06-07T02:49:27.970Z,59.89
2023-06-07T02:51:55.516Z,60.95
2023-06-07T02:54:22.516Z,62.04
2023-06-07T02:56:50.343Z,62.95
2023-06-07T02:59:17.223Z,63.64
2023-06-07T03:01:46.979Z,64.35
2023-06-07T03:04:15.091Z,64.76
2023-06-07T03:06:42.885Z,64.80
2023-06-07T03:09:31.016Z,64.84
2023-06-07T03:11:57.935Z,64.95
2023-06-07T03:14:26.453Z,65.18
2023-06-07T03:16:54.100Z,65.07
2023-06-07T03:19:21.380Z,65.77
2023-06-07T03:21:48.300Z,65.80
2023-06-07T03:24:17.252Z,65.80
2023-06-07T03:26:45.917Z,65.84
2023-06-07T03:29:13.355Z,66.03
2023-06-07T03:31:40.938Z,66.28
2023-06-07T03:34:10.605Z,66.63
2023-06-07T03:36:38.842Z,67.03
2023-06-07T03:39:06.147Z,67.17
2023-06-07T03:41:33.939Z,67.29
2023-06-07T03:44:04.200Z,67.00
2023-06-07T03:46:31.425Z,67.21
2023-06-07T03:48:58.732Z,66.86
2023-06-07T03:51:26.171Z,66.30
2023-06-07T03:53:53.574Z,65.85
2023-06-07T03:56:21.724Z,65.61
2023-06-07T03:58:49.530Z,65.28
2023-06-07T04:01:18.531Z,64.24
2023-06-07T04:03:47.418Z,63.95
2023-06-07T04:06:14.951Z,63.30
2023-06-07T04:08:42.665Z,63.03
2023-06-07T04:11:09.420Z,63.29
2023-06-07T04:13:36.702Z,62.63
2023-06-07T04:16:03.951Z,62.52
2023-06-07T04:18:30.773Z,62.03
2023-06-07T04:20:57.577Z,61.33
2023-06-07T04:23:25.466Z,59.47
2023-06-07T04:25:56.179Z,58.42
2023-06-07T04:28:25.425Z,57.84
2023-06-07T04:30:57.752Z,57.19
2023-06-07T04:33:24.800Z,56.28
2023-06-07T04:35:51.723Z,55.59
2023-06-07T04:38:24.541Z,55.00
2023-06-07T04:40:56.582Z,54.62
2023-06-07T04:43:38.553Z,54.21
2023-06-07T04:46:09.847Z,53.48
2023-06-07T04:48:41.569Z,52.33
2023-06-07T04:51:09.142Z,51.54
2023-06-07T04:53:43.634Z,50.27
2023-06-07T04:56:12.553Z,49.91
2023-06-07T04:58:42.538Z,49.30
2023-06-07T05:01:11.367Z,48.78
2023-06-07T05:03:41.459Z,48.14
2023-06-07T05:06:10.598Z,47.90
2023-06-07T05:08:38.191Z,47.41
2023-06-07T05:11:05.381Z,46.58
2023-06-07T05:13:32.763Z,46.24
2023-06-07T05:16:04.121Z,45.28
2023-06-07T05:18:32.778Z,44.37
2023-06-07T05:21:01.328Z,43.74
2023-06-07T05:23:29.389Z,43.23
2023-06-07T05:25:56.483Z,43.52
2023-06-07T05:28:23.947Z,42.52
2023-06-07T05:30:53.880Z,41.70
2023-06-07T05:33:22.022Z,41.36
2023-06-07T05:35:49.165Z,41.02
2023-06-07T05:38:17.339Z,41.00
2023-06-07T05:40:44.145Z,40.63
2023-06-07T05:43:11.644Z,40.46
2023-06-07T05:45:40.858Z,40.27
2023-06-07T05:48:08.229Z,40.18
2023-06-07T05:50:35.698Z,40.48
2023-06-07T05:53:02.489Z,40.15
2023-06-07T05:55:30.053Z,39.92
2023-06-07T05:57:57.938Z,39.83
2023-06-07T06:00:27.864Z,39.68
2023-06-07T06:02:58.223Z,39.23
2023-06-07T06:05:29.796Z,38.61
2023-06-07T06:07:59.725Z,38.16
2023-06-07T06:10:28.254Z,38.02
2023-06-07T06:12:57.341Z,38.11
2023-06-07T06:15:24.780Z,37.82
2023-06-07T06:17:54.807Z,37.62
2023-06-07T06:20:21.825Z,38.00
2023-06-07T06:22:48.967Z,37.05
2023-06-07T06:25:15.817Z,36.72
2023-06-07T06:27:43.671Z,36.54
2023-06-07T06:30:11.105Z,36.21
2023-06-07T06:32:39.734Z,36.20
2023-06-07T06:35:07.890Z,36.43
2023-06-07T06:37:35.123Z,35.93
2023-06-07T06:40:01.940Z,36.22
2023-06-07T06:42:28.944Z,35.94
2023-06-07T06:45:20.004Z,35.97
2023-06-07T06:47:46.878Z,36.06
2023-06-07T06:50:30.121Z,35.48
2023-06-07T06:53:00.960Z,35.64
2023-06-07T06:55:28.227Z,35.93
2023-06-07T06:57:55.711Z,35.41
2023-06-07T07:00:24.695Z,35.15
2023-06-07T07:02:55.130Z,35.18
2023-06-07T07:05:23.408Z,35.01
2023-06-07T07:07:50.484Z,35.08
2023-06-07T07:10:19.105Z,34.86
2023-06-07T07:12:46.219Z,34.44
2023-06-07T07:15:13.995Z,34.14
2023-06-07T07:17:50.335Z,33.79
2023-06-07T07:20:18.095Z,33.70
2023-06-07T07:22:46.857Z,33.26
2023-06-07T07:25:13.857Z,33.37
2023-06-07T07:27:40.834Z,33.39
2023-06-07T07:30:07.981Z,33.39
2023-06-07T07:32:35.055Z,33.21
2023-06-07T07:35:03.062Z,33.12
2023-06-07T07:37:31.134Z,32.81
2023-06-07T07:39:58.253Z,32.67
2023-06-07T07:42:25.616Z,32.66
2023-06-07T07:44:52.818Z,32.40
2023-06-07T07:47:20.102Z,32.63
2023-06-07T07:49:47.924Z,32.86
2023-06-07T07:52:14.737Z,32.53
2023-06-07T07:54:41.859Z,32.61
2023-06-07T07:57:08.935Z,32.09
2023-06-07T07:59:38.850Z,31.40
2023-06-07T08:02:05.732Z,31.11
2023-06-07T08:04:33.043Z,31.20
2023-06-07T08:07:01.012Z,30.68
2023-06-07T08:09:27.993Z,30.45
2023-06-07T08:11:58.412Z,30.85
2023-06-07T08:14:25.848Z,30.84
2023-06-07T08:16:53.008Z,30.97
2023-06-07T08:19:19.990Z,31.59
2023-06-07T08:21:48.192Z,31.75
2023-06-07T08:24:15.948Z,31.66
2023-06-07T08:26:45.564Z,31.57
2023-06-07T08:29:12.356Z,31.54
2023-06-07T08:31:42.161Z,31.43
2023-06-07T08:34:11.155Z,31.61
2023-06-07T08:36:40.335Z,31.90
2023-06-07T08:39:07.955Z,32.46
2023-06-07T08:41:35.004Z,32.53
2023-06-07T08:44:02.151Z,32.17
2023-06-07T08:46:32.066Z,32.24
2023-06-07T08:49:03.431Z,32.49
2023-06-07T08:51:36.896Z,32.55
2023-06-07T08:54:04.591Z,32.47
2023-06-07T08:56:34.492Z,32.23
2023-06-07T08:59:04.755Z,32.48
2023-06-07T09:01:36.874Z,32.38
2023-06-07T09:04:05.248Z,32.14
2023-06-07T09:06:34.968Z,31.34
2023-06-07T09:09:03.651Z,31.03
2023-06-07T09:11:33.645Z,31.38
2023-06-07T09:14:01.711Z,31.89
2023-06-07T09:16:31.086Z,32.52
2023-06-07T09:19:02.391Z,32.44
2023-06-07T09:21:36.977Z,32.61
2023-06-07T09:24:04.088Z,33.12
2023-06-07T09:26:38.797Z,33.96
2023-06-07T09:29:09.718Z,34.29
2023-06-07T09:31:38.392Z,34.40
2023-06-07T09:34:25.261Z,34.52
2023-06-07T09:36:56.785Z,35.12
2023-06-07T09:39:25.946Z,35.84
2023-06-07T09:41:56.590Z,35.99
2023-06-07T09:44:30.379Z,36.65
2023-06-07T09:46:58.665Z,37.25
2023-06-07T09:49:34.969Z,37.14
2023-06-07T09:52:03.125Z,36.90
2023-06-07T09:54:45.994Z,36.37
2023-06-07T09:57:29.609Z,36.56
2023-06-07T10:00:08.349Z,36.06
2023-06-07T10:02:44.417Z,36.12
2023-06-07T10:05:15.670Z,36.38
2023-06-07T10:07:53.481Z,37.02
2023-06-07T10:10:22.813Z,37.10
2023-06-07T10:12:51.887Z,36.35
2023-06-07T10:15:24.204Z,36.55
2023-06-07T10:17:56.065Z,36.12
2023-06-07T10:20:30.769Z,35.80
2023-06-07T10:23:08.256Z,35.44
2023-06-07T10:25:38.665Z,35.56
2023-06-07T10:28:25.787Z,35.65
2023-06-07T10:30:56.226Z,35.45
2023-06-07T10:33:26.015Z,35.02
2023-06-07T10:35:53.132Z,33.72
2023-06-07T10:38:22.678Z,33.13
2023-06-07T10:40:52.664Z,32.63
2023-06-07T10:43:35.686Z,32.30
2023-06-07T10:46:19.439Z,32.17
2023-06-07T10:48:49.185Z,32.25
2023-06-07T10:51:16.528Z,33.07
2023-06-07T10:53:56.693Z,33.97
2023-06-07T10:56:34.463Z,33.98
2023-06-07T10:59:13.686Z,34.54
2023-06-07T11:01:41.152Z,35.39
2023-06-07T11:04:08.285Z,36.10
2023-06-07T11:07:01.183Z,36.71
2023-06-07T11:09:34.246Z,37.62
2023-06-07T11:12:01.763Z,38.39
2023-06-07T11:14:28.883Z,38.94
2023-06-07T11:16:55.908Z,38.27
2023-06-07T11:19:23.067Z,38.30
2023-06-07T11:21:56.782Z,37.21
2023-06-07T11:24:25.172Z,37.22
2023-06-07T11:26:54.287Z,38.11
2023-06-07T11:29:27.900Z,38.52
2023-06-07T11:32:06.074Z,38.84
2023-06-07T11:34:33.835Z,38.95
2023-06-07T11:37:14.927Z,38.96
2023-06-07T11:39:47.915Z,38.84
2023-06-07T11:42:14.884Z,37.68
2023-06-07T11:44:41.813Z,37.34
2023-06-07T11:47:08.754Z,38.21
2023-06-07T11:49:39.824Z,38.37
2023-06-07T11:52:07.670Z,38.07
2023-06-07T11:54:42.711Z,37.92
2023-06-07T11:57:13.469Z,38.14
2023-06-07T11:59:42.311Z,37.97
2023-06-07T12:02:09.611Z,37.42
2023-06-07T12:04:37.617Z,37.45
2023-06-07T12:07:20.483Z,36.64
2023-06-07T12:09:50.044Z,36.01
2023-06-07T12:12:17.147Z,36.24
2023-06-07T12:14:46.192Z,35.84
2023-06-07T12:17:24.172Z,35.95
2023-06-07T12:20:12.036Z,35.14
2023-06-07T12:22:39.565Z,34.80
2023-06-07T12:25:15.648Z,35.31
2023-06-07T12:27:49.101Z,35.88
2023-06-07T12:30:20.143Z,36.21
2023-06-07T12:32:48.663Z,36.52
2023-06-07T12:35:18.178Z,36.61
2023-06-07T12:37:45.443Z,37.25
2023-06-07T12:40:12.677Z,37.93
2023-06-07T12:42:41.236Z,38.02
2023-06-07T12:45:08.822Z,38.18
2023-06-07T12:47:36.808Z,38.93
2023-06-07T12:50:05.915Z,39.51
2023-06-07T12:52:32.832Z,39.41
2023-06-07T12:54:59.751Z,39.39
2023-06-07T12:57:26.662Z,40.44
2023-06-07T12:59:53.385Z,43.92
2023-06-07T13:02:20.897Z,45.97
2023-06-07T13:04:47.938Z,46.24
2023-06-07T13:07:14.998Z,45.19
2023-06-07T13:09:42.070Z,46.74
2023-06-07T13:12:09.576Z,49.04
2023-06-07T13:14:37.151Z,50.16
2023-06-07T13:17:04.346Z,50.67
2023-06-07T13:19:32.038Z,51.42
2023-06-07T13:21:59.039Z,51.80
2023-06-07T13:24:26.193Z,51.77
2023-06-07T13:26:53.200Z,51.70
2023-06-07T13:29:20.809Z,51.13
2023-06-07T13:31:49.800Z,50.20
2023-06-07T13:34:18.596Z,49.51
2023-06-07T13:36:47.120Z,47.85
2023-06-07T13:39:14.451Z,46.99
2023-06-07T13:41:43.012Z,45.49
2023-06-07T13:44:17.965Z,44.35
2023-06-07T13:46:47.065Z,43.51
2023-06-07T13:49:15.931Z,42.33
2023-06-07T13:51:45.409Z,42.31
2023-06-07T13:54:20.316Z,42.10
2023-06-07T13:56:51.387Z,41.50
2023-06-07T13:59:23.553Z,40.62
2023-06-07T14:01:55.266Z,40.65
2023-06-07T14:04:29.950Z,40.92
2023-06-07T14:06:57.297Z,40.43
2023-06-07T14:09:24.154Z,40.26
2023-06-07T14:11:54.213Z,39.84
2023-06-07T14:14:21.071Z,39.79
2023-06-07T14:16:50.564Z,39.22
2023-06-07T14:19:18.022Z,39.27
2023-06-07T14:21:45.917Z,39.72
2023-06-07T14:24:12.834Z,39.43
2023-06-07T14:26:39.508Z,39.57
2023-06-07T14:29:06.393Z,39.84
2023-06-07T14:31:33.373Z,39.77
2023-06-07T14:34:00.503Z,39.58
2023-06-07T14:36:27.987Z,40.09
2023-06-07T14:38:55.245Z,40.66
2023-06-07T14:41:28.458Z,40.74
2023-06-07T14:43:55.590Z,41.29
2023-06-07T14:46:25.789Z,41.05
2023-06-07T14:48:54.237Z,40.91
2023-06-07T14:51:23.739Z,40.62
2023-06-07T14:53:51.153Z,40.90
2023-06-07T14:56:18.940Z,40.91
2023-06-07T14:58:48.448Z,40.80
2023-06-07T15:01:15.716Z,40.88
2023-06-07T15:03:44.736Z,41.02
2023-06-07T15:06:11.515Z,40.82
2023-06-07T15:08:38.984Z,41.48
2023-06-07T15:11:06.302Z,41.96
2023-06-07T15:13:33.273Z,41.84
2023-06-07T15:16:00.162Z,42.34
2023-06-07T15:18:28.818Z,42.69
2023-06-07T15:20:55.773Z,42.20
2023-06-07T15:23:22.501Z,41.27
2023-06-07T15:25:49.521Z,41.19
2023-06-07T15:28:16.572Z,41.35
2023-06-07T15:30:43.331Z,41.23
2023-06-07T15:33:10.521Z,41.06
2023-06-07T15:35:37.549Z,41.59
2023-06-07T15:38:04.377Z,41.75
2023-06-07T15:40:31.672Z,40.98
2023-06-07T15:42:58.575Z,40.54
2023-06-07T15:45:27.667Z,40.70
2023-06-07T15:48:02.236Z,40.65
2023-06-07T15:50:29.827Z,40.97
2023-06-07T15:52:58.291Z,41.94
2023-06-07T15:55:27.995Z,42.52
2023-06-07T15:57:55.270Z,41.86
2023-06-07T16:02:52.184Z,42.14
2023-06-07T16:05:18.987Z,41.95
2023-06-07T16:07:47.105Z,42.17
2023-06-07T16:10:13.846Z,42.56
2023-06-07T16:12:41.041Z,42.69
2023-06-07T16:15:10.045Z,42.84
2023-06-07T16:17:37.166Z,43.02
2023-06-07T16:20:04.695Z,43.27
2023-06-07T16:22:32.213Z,43.91
2023-06-07T16:24:59.009Z,44.49
2023-06-07T16:27:25.761Z,45.05
2023-06-07T16:29:52.499Z,45.00
2023-06-07T16:32:19.329Z,44.95
2023-06-07T16:34:46.890Z,44.96
2023-06-07T16:37:14.724Z,44.67
2023-06-07T16:39:41.484Z,44.47
2023-06-07T16:42:10.692Z,45.37
2023-06-07T16:44:38.279Z,45.64
2023-06-07T16:47:05.256Z,45.66
2023-06-07T16:49:33.387Z,45.53
2023-06-07T16:52:00.195Z,45.34
2023-06-07T16:54:27.915Z,45.16
2023-06-07T16:56:54.736Z,44.99
2023-06-07T16:59:21.497Z,44.96
2023-06-07T17:01:49.106Z,45.24
2023-06-07T17:04:17.634Z,45.54
2023-06-07T17:06:45.642Z,45.40
2023-06-07T17:09:12.454Z,45.63
2023-06-07T17:11:39.176Z,46.14
2023-06-07T17:14:06.010Z,45.99
2023-06-07T17:16:32.857Z,46.10
2023-06-07T17:18:59.685Z,46.24
2023-06-07T17:21:26.499Z,46.44
2023-06-07T17:23:53.661Z,46.52
2023-06-07T17:26:21.971Z,46.62
2023-06-07T17:28:48.771Z,46.65
2023-06-07T17:31:15.474Z,46.68
2023-06-07T17:33:42.502Z,46.91
2023-06-07T17:36:09.495Z,47.20
2023-06-07T17:38:36.429Z,47.24
2023-06-07T17:41:03.539Z,47.31
2023-06-07T17:43:30.393Z,47.54
2023-06-07T17:45:57.274Z,47.56
2023-06-07T17:48:24.543Z,48.22
2023-06-07T17:50:51.250Z,48.66
2023-06-07T17:53:19.072Z,48.75
2023-06-07T17:55:46.357Z,49.00
2023-06-07T17:58:13.488Z,49.29
2023-06-07T18:00:40.498Z,49.43
2023-06-07T18:03:07.424Z,49.55
2023-06-07T18:05:34.434Z,49.87
2023-06-07T18:08:03.227Z,49.99
2023-06-07T18:10:30.378Z,50.05
2023-06-07T18:12:57.906Z,50.21
2023-06-07T18:15:26.736Z,50.62
2023-06-07T18:17:54.401Z,51.18
2023-06-07T18:20:21.499Z,51.56
2023-06-07T18:22:48.299Z,51.73
2023-06-07T18:25:15.464Z,52.23
2023-06-07T18:27:43.267Z,52.63
2023-06-07T18:30:10.315Z,52.98
2023-06-07T18:32:37.454Z,53.94
2023-06-07T18:35:04.981Z,54.73
2023-06-07T18:37:32.396Z,55.69
2023-06-07T18:40:04.884Z,56.26
2023-06-07T18:42:32.363Z,56.78
2023-06-07T18:44:59.094Z,57.36
2023-06-07T18:47:26.885Z,58.01
2023-06-07T18:49:54.089Z,58.80
2023-06-07T18:52:20.983Z,59.78
2023-06-07T18:54:50.700Z,60.67
2023-06-07T18:57:18.408Z,61.43
2023-06-07T18:59:45.235Z,62.98
2023-06-07T19:02:12.525Z,63.86
2023-06-07T19:04:39.624Z,64.68
2023-06-07T19:07:06.840Z,65.20
2023-06-07T19:09:35.503Z,65.53
2023-06-07T19:12:02.368Z,66.01
2023-06-07T19:14:31.135Z,66.45
2023-06-07T19:16:58.392Z,66.72
2023-06-07T19:19:25.170Z,66.93
2023-06-07T19:21:52.025Z,67.07
2023-06-07T19:24:19.082Z,67.19
2023-06-07T19:26:46.208Z,67.12
2023-06-07T19:29:13.056Z,67.32
2023-06-07T19:31:40.209Z,67.48
2023-06-07T19:34:08.581Z,67.80
2023-06-07T19:36:37.440Z,68.00
2023-06-07T19:39:04.536Z,68.15
2023-06-07T19:41:31.833Z,68.35
2023-06-07T19:43:59.023Z,68.45
2023-06-07T19:46:26.001Z,68.52
2023-06-07T19:48:52.940Z,68.56
2023-06-07T19:51:21.753Z,68.57
2023-06-07T19:53:48.833Z,68.68
2023-06-07T19:56:16.600Z,68.87
2023-06-07T19:58:43.468Z,69.02
2023-06-07T20:01:10.543Z,68.78
2023-06-07T20:03:37.256Z,69.19
2023-06-07T20:06:04.867Z,69.60
2023-06-07T20:08:33.465Z,69.69
2023-06-07T20:11:00.157Z,69.73
2023-06-07T20:13:27.031Z,70.19
2023-06-07T20:15:54.671Z,70.60
2023-06-07T20:18:21.931Z,70.71
2023-06-07T20:20:48.612Z,71.10
2023-06-07T20:23:16.232Z,71.65
2023-06-07T20:25:42.987Z,72.06
2023-06-07T20:28:09.895Z,71.78
2023-06-07T20:30:36.660Z,71.78
2023-06-07T20:33:03.826Z,71.45
2023-06-07T20:35:32.578Z,71.56
2023-06-07T20:37:59.576Z,71.05
2023-06-07T20:40:26.141Z,70.89
2023-06-07T20:42:53.135Z,70.99
2023-06-07T20:45:19.839Z,71.12
2023-06-07T20:47:46.548Z,71.62
2023-06-07T20:50:13.268Z,71.87
2023-06-07T20:52:41.095Z,72.21
2023-06-07T20:55:08.467Z,72.17
2023-06-07T20:57:35.401Z,72.12
2023-06-07T21:00:03.707Z,71.71
2023-06-07T21:02:31.793Z,71.19
2023-06-07T21:04:58.983Z,70.96
2023-06-07T21:07:25.651Z,70.99
2023-06-07T21:09:52.884Z,71.07
2023-06-07T21:12:20.012Z,71.11
2023-06-07T21:14:47.040Z,71.28
2023-06-07T21:17:13.977Z,71.77
2023-06-07T21:19:40.689Z,72.08
2023-06-07T21:22:07.396Z,71.99
2023-06-07T21:24:34.251Z,72.16
2023-06-07T21:27:01.079Z,72.06
2023-06-07T21:29:27.886Z,71.90
2023-06-07T21:31:54.928Z,72.13
2023-06-07T21:34:21.773Z,72.11
2023-06-07T21:36:48.696Z,72.32
2023-06-07T21:39:15.323Z,72.61
2023-06-07T21:41:42.224Z,72.77
2023-06-07T21:44:08.878Z,72.62
2023-06-07T21:46:35.609Z,71.99
2023-06-07T21:49:02.747Z,71.83
2023-06-07T21:51:29.549Z,71.70
2023-06-07T21:53:56.713Z,72.15
2023-06-07T21:56:23.544Z,72.42
2023-06-07T21:58:50.288Z,72.24
2023-06-07T22:01:17.148Z,71.91
2023-06-07T22:03:44.196Z,72.30
2023-06-07T22:06:11.151Z,72.40
2023-06-07T22:08:38.001Z,72.75
2023-06-07T22:11:04.828Z,72.95
2023-06-07T22:13:37.580Z,73.26
2023-06-07T22:16:05.241Z,73.22
2023-06-07T22:18:35.830Z,73.40
2023-06-07T22:21:03.791Z,73.40
2023-06-07T22:23:31.256Z,73.28
2023-06-07T22:25:58.072Z,72.52
2023-06-07T22:28:26.504Z,72.63
2023-06-07T22:30:53.892Z,72.79
2023-06-07T22:33:21.286Z,72.80
2023-06-07T22:35:48.246Z,72.17
2023-06-07T22:38:16.431Z,71.75
2023-06-07T22:40:43.169Z,71.57
2023-06-07T22:43:09.882Z,71.29
2023-06-07T22:45:36.790Z,71.14
2023-06-07T22:48:11.760Z,71.04
2023-06-07T22:50:40.274Z,70.98
2023-06-07T22:53:09.159Z,70.63
2023-06-07T22:55:36.362Z,70.36
2023-06-07T22:58:03.633Z,70.35
2023-06-07T23:00:34.915Z,70.31
2023-06-07T23:03:03.063Z,69.94
2023-06-07T23:05:29.995Z,69.58
2023-06-07T23:07:57.796Z,69.52
2023-06-07T23:10:35.388Z,69.26
2023-06-07T23:13:07.995Z,68.90
2023-06-07T23:15:35.974Z,69.00
2023-06-07T23:18:03.186Z,69.24
2023-06-07T23:20:33.266Z,69.76
2023-06-07T23:23:04.174Z,69.48
2023-06-07T23:25:31.888Z,69.61
2023-06-07T23:27:58.889Z,69.79
2023-06-07T23:30:27.007Z,70.17
2023-06-07T23:32:54.289Z,70.49
2023-06-07T23:35:21.522Z,70.77
2023-06-07T23:37:48.864Z,71.09
2023-06-07T23:40:16.694Z,71.37
2023-06-07T23:42:44.171Z,71.67
2023-06-07T23:45:11.363Z,71.81
2023-06-07T23:47:38.469Z,71.91
2023-06-07T23:50:09.017Z,71.77
2023-06-07T23:52:38.392Z,71.78
2023-06-07T23:55:05.570Z,71.87
2023-06-07T23:57:32.482Z,72.23
2023-06-07T23:59:59.248Z,72.70
